Mississippi Enterprise — WDE2542 — position and weather

sailwx.info

Track history (hours):
 
Tides and Currents Weather Stations Pressure Air Temp Water Temp Dewpoint Dewpoint Depression Visibility Wind Speed Wind Dir Waves Ship Positions

Mississippi Enterprise

Owner: U.S. United Ocean Services, LLC, Tampa, FL. More information available from US FCC via Universal Licensing System and Coast Guard Vessel Documentation Center.

Last reported at 2014-Dec-17 00:25 UTC. Time now 2014-Dec-19 10:46 UTC.
Position N 26°58' W 079°46'.

Length 187 m; draft 10.4 m.

Type: Cargo ship. MMSI: 369813000.

Date/timePositionNaut miles runAvg speedWind from/ knotsBaromVisibWave heightAir tempDewpointWater temp
2014-Dec-17 00:25N 26°58' W 079°46'3217.2
2014-Dec-16 22:33N 26°26' W 079°46'1717.5
2014-Dec-16 21:34N 26°09' W 079°49'1717.4
2014-Dec-16 20:33N 25°51' W 079°52'  
2014-Dec-14 04:32N 29°34' W 094°55'10 9.9
2014-Dec-14 03:33N 29°42' W 095°00'8 0.7
2014-Dec-13 17:29N 29°44' W 095°09'0 0.0
2014-Dec-13 16:32N 29°44' W 095°09'0 0.0
2014-Dec-13 15:32N 29°44' W 095°09'0 0.0
2014-Dec-13 14:29N 29°44' W 095°09'0 0.0
2014-Dec-13 13:32N 29°44' W 095°09'0 0.0
2014-Dec-13 12:32N 29°44' W 095°09'0 0.0
2014-Dec-13 11:32N 29°44' W 095°09'0 0.0
2014-Dec-13 10:32N 29°44' W 095°09'0 0.0
2014-Dec-13 09:32N 29°44' W 095°09'0 0.0
2014-Dec-13 08:32N 29°44' W 095°09'0 0.0
2014-Dec-13 07:32N 29°44' W 095°09'0 0.0
2014-Dec-13 06:29N 29°44' W 095°09'0 0.0
2014-Dec-13 05:32N 29°44' W 095°09'0 0.0
2014-Dec-13 04:32N 29°44' W 095°09'0 0.0
2014-Dec-13 03:29N 29°44' W 095°09'0 0.0
2014-Dec-13 02:32N 29°44' W 095°09'0 0.0
2014-Dec-13 01:29N 29°44' W 095°09'0 0.0
2014-Dec-13 00:32N 29°44' W 095°09'0 0.0
2014-Dec-12 23:33N 29°44' W 095°09'2 2.3
2014-Dec-12 22:33N 29°45' W 095°06'7 6.9
2014-Dec-12 21:33N 29°41' W 094°59'1312.7
2014-Dec-12 20:33N 29°30' W 094°52'  
2014-Dec-10 05:28N 27°46' W 082°31'6 6.8
2014-Dec-10 04:33N 27°48' W 082°25'0 0.4
2014-Dec-10 03:29N 27°48' W 082°25'0 0.0
2014-Dec-10 02:08N 27°48' W 082°25'0 0.0
2014-Dec-10 01:32N 27°48' W 082°25'0 0.0
2014-Dec-10 00:32N 27°48' W 082°25'0 0.0
2014-Dec-09 23:32N 27°48' W 082°25'0 0.0
2014-Dec-09 22:29N 27°48' W 082°25'0 0.0
2014-Dec-09 21:32N 27°48' W 082°25'0 0.0
2014-Dec-09 20:32N 27°48' W 082°25'0 0.0
2014-Dec-09 19:32N 27°48' W 082°25'0 0.0
2014-Dec-09 17:29N 27°48' W 082°25'0 0.0
2014-Dec-09 16:32N 27°48' W 082°25'0 0.0
2014-Dec-09 15:29N 27°48' W 082°25'0 0.0
2014-Dec-09 14:32N 27°48' W 082°25'0 0.0
2014-Dec-09 13:32N 27°48' W 082°25'0 0.0
2014-Dec-09 12:32N 27°48' W 082°25'0 0.0
2014-Dec-09 11:29N 27°48' W 082°25'0 0.0
2014-Dec-09 10:32N 27°48' W 082°25'0 0.0
2014-Dec-09 08:32N 27°48' W 082°25'0 0.0
2014-Dec-09 07:32N 27°48' W 082°25'0 0.0
2014-Dec-09 06:29N 27°48' W 082°25'0 0.0
2014-Dec-09 05:32N 27°48' W 082°25'0 0.0
2014-Dec-09 04:32N 27°48' W 082°25'0 0.0
2014-Dec-09 03:32N 27°48' W 082°25'0 0.0
2014-Dec-09 02:29N 27°48' W 082°25'0 0.0
2014-Dec-09 01:32N 27°48' W 082°25'0 0.0
2014-Dec-09 00:29N 27°48' W 082°25'0 0.0
2014-Dec-08 23:32N 27°48' W 082°25'0 0.0
2014-Dec-08 22:23N 27°48' W 082°25'0 0.0
2014-Dec-08 21:05N 27°48' W 082°25'0 0.0
2014-Dec-08 20:32N 27°48' W 082°25'0 0.0
2014-Dec-08 19:32N 27°48' W 082°25'0 0.0
2014-Dec-08 18:26N 27°48' W 082°25'0 0.0
2014-Dec-08 17:20N 27°48' W 082°25'0 0.0
2014-Dec-08 16:32N 27°48' W 082°25'0 0.0
2014-Dec-08 15:32N 27°48' W 082°25'0 0.0
2014-Dec-08 14:32N 27°48' W 082°25'0 0.0
2014-Dec-08 13:32N 27°48' W 082°25'0 0.0
2014-Dec-08 12:32N 27°48' W 082°25'0 0.0
2014-Dec-08 11:29N 27°48' W 082°25'0 0.0
2014-Dec-08 10:20N 27°48' W 082°25'0 0.0
2014-Dec-08 09:23N 27°48' W 082°25'0 0.0
2014-Dec-08 08:32N 27°48' W 082°25'0 0.0
2014-Dec-08 07:32N 27°48' W 082°25'0 0.0
2014-Dec-08 06:32N 27°48' W 082°25'0 0.0
2014-Dec-08 05:32N 27°48' W 082°25'0 0.0
2014-Dec-08 04:32N 27°48' W 082°25'0 0.0
2014-Dec-08 03:32N 27°48' W 082°25'0 0.0
2014-Dec-08 02:32N 27°48' W 082°25'0 0.0
2014-Dec-08 01:32N 27°48' W 082°25'0 0.0
2014-Dec-08 00:32N 27°48' W 082°25'0 0.0
2014-Dec-07 23:32N 27°48' W 082°25'0 0.0
2014-Dec-07 19:29N 27°48' W 082°25'0 0.0
2014-Dec-07 18:29N 27°48' W 082°25'0 0.0
2014-Dec-07 17:23N 27°48' W 082°25'0 0.0
2014-Dec-07 15:11N 27°48' W 082°25'0 0.4
2014-Dec-07 14:33N 27°48' W 082°25'4 4.0
2014-Dec-07 13:33N 27°48' W 082°29'1111.1
2014-Dec-07 12:33N 27°39' W 082°37'1111.1
2014-Dec-07 11:33N 27°36' W 082°49'1111.0
2014-Dec-07 10:33N 27°35' W 083°01'  
Track history (hours):
 
Tides and Currents Weather Stations Pressure Air Temp Water Temp Dewpoint Dewpoint Depression Visibility Wind Speed Wind Dir Waves Ship Positions

Mississippi Enterprise

Owner: U.S. United Ocean Services, LLC, Tampa, FL. More information available from US FCC via Universal Licensing System and Coast Guard Vessel Documentation Center.

Last reported at 2014-Dec-17 00:25 UTC. Time now 2014-Dec-19 10:46 UTC.
Position N 26°58' W 079°46'.

Length 187 m; draft 10.4 m.

Type: Cargo ship. MMSI: 369813000.

Date/timePositionNaut miles runAvg speedWind from/ knotsBaromVisibWave heightAir tempDewpointWater temp
2014-Dec-17 00:25N 26°58' W 079°46'3217.2
2014-Dec-16 22:33N 26°26' W 079°46'1717.5
2014-Dec-16 21:34N 26°09' W 079°49'1717.4
2014-Dec-16 20:33N 25°51' W 079°52'  
2014-Dec-14 04:32N 29°34' W 094°55'10 9.9
2014-Dec-14 03:33N 29°42' W 095°00'8 0.7
2014-Dec-13 17:29N 29°44' W 095°09'0 0.0
2014-Dec-13 16:32N 29°44' W 095°09'0 0.0
2014-Dec-13 15:32N 29°44' W 095°09'0 0.0
2014-Dec-13 14:29N 29°44' W 095°09'0 0.0
2014-Dec-13 13:32N 29°44' W 095°09'0 0.0
2014-Dec-13 12:32N 29°44' W 095°09'0 0.0
2014-Dec-13 11:32N 29°44' W 095°09'0 0.0
2014-Dec-13 10:32N 29°44' W 095°09'0 0.0
2014-Dec-13 09:32N 29°44' W 095°09'0 0.0
2014-Dec-13 08:32N 29°44' W 095°09'0 0.0
2014-Dec-13 07:32N 29°44' W 095°09'0 0.0
2014-Dec-13 06:29N 29°44' W 095°09'0 0.0
2014-Dec-13 05:32N 29°44' W 095°09'0 0.0
2014-Dec-13 04:32N 29°44' W 095°09'0 0.0
2014-Dec-13 03:29N 29°44' W 095°09'0 0.0
2014-Dec-13 02:32N 29°44' W 095°09'0 0.0
2014-Dec-13 01:29N 29°44' W 095°09'0 0.0
2014-Dec-13 00:32N 29°44' W 095°09'0 0.0
2014-Dec-12 23:33N 29°44' W 095°09'2 2.3
2014-Dec-12 22:33N 29°45' W 095°06'7 6.9
2014-Dec-12 21:33N 29°41' W 094°59'1312.7
2014-Dec-12 20:33N 29°30' W 094°52'  
2014-Dec-10 05:28N 27°46' W 082°31'6 6.8
2014-Dec-10 04:33N 27°48' W 082°25'0 0.4
2014-Dec-10 03:29N 27°48' W 082°25'0 0.0
2014-Dec-10 02:08N 27°48' W 082°25'0 0.0
2014-Dec-10 01:32N 27°48' W 082°25'0 0.0
2014-Dec-10 00:32N 27°48' W 082°25'0 0.0
2014-Dec-09 23:32N 27°48' W 082°25'0 0.0
2014-Dec-09 22:29N 27°48' W 082°25'0 0.0
2014-Dec-09 21:32N 27°48' W 082°25'0 0.0
2014-Dec-09 20:32N 27°48' W 082°25'0 0.0
2014-Dec-09 19:32N 27°48' W 082°25'0 0.0
2014-Dec-09 17:29N 27°48' W 082°25'0 0.0
2014-Dec-09 16:32N 27°48' W 082°25'0 0.0
2014-Dec-09 15:29N 27°48' W 082°25'0 0.0
2014-Dec-09 14:32N 27°48' W 082°25'0 0.0
2014-Dec-09 13:32N 27°48' W 082°25'0 0.0
2014-Dec-09 12:32N 27°48' W 082°25'0 0.0
2014-Dec-09 11:29N 27°48' W 082°25'0 0.0
2014-Dec-09 10:32N 27°48' W 082°25'0 0.0
2014-Dec-09 08:32N 27°48' W 082°25'0 0.0
2014-Dec-09 07:32N 27°48' W 082°25'0 0.0
2014-Dec-09 06:29N 27°48' W 082°25'0 0.0
2014-Dec-09 05:32N 27°48' W 082°25'0 0.0
2014-Dec-09 04:32N 27°48' W 082°25'0 0.0
2014-Dec-09 03:32N 27°48' W 082°25'0 0.0
2014-Dec-09 02:29N 27°48' W 082°25'0 0.0
2014-Dec-09 01:32N 27°48' W 082°25'0 0.0
2014-Dec-09 00:29N 27°48' W 082°25'0 0.0
2014-Dec-08 23:32N 27°48' W 082°25'0 0.0
2014-Dec-08 22:23N 27°48' W 082°25'0 0.0
2014-Dec-08 21:05N 27°48' W 082°25'0 0.0
2014-Dec-08 20:32N 27°48' W 082°25'0 0.0
2014-Dec-08 19:32N 27°48' W 082°25'0 0.0
2014-Dec-08 18:26N 27°48' W 082°25'0 0.0
2014-Dec-08 17:20N 27°48' W 082°25'0 0.0
2014-Dec-08 16:32N 27°48' W 082°25'0 0.0
2014-Dec-08 15:32N 27°48' W 082°25'0 0.0
2014-Dec-08 14:32N 27°48' W 082°25'0 0.0
2014-Dec-08 13:32N 27°48' W 082°25'0 0.0
2014-Dec-08 12:32N 27°48' W 082°25'0 0.0
2014-Dec-08 11:29N 27°48' W 082°25'0 0.0
2014-Dec-08 10:20N 27°48' W 082°25'0 0.0
2014-Dec-08 09:23N 27°48' W 082°25'0 0.0
2014-Dec-08 08:32N 27°48' W 082°25'0 0.0
2014-Dec-08 07:32N 27°48' W 082°25'0 0.0
2014-Dec-08 06:32N 27°48' W 082°25'0 0.0
2014-Dec-08 05:32N 27°48' W 082°25'0 0.0
2014-Dec-08 04:32N 27°48' W 082°25'0 0.0
2014-Dec-08 03:32N 27°48' W 082°25'0 0.0
2014-Dec-08 02:32N 27°48' W 082°25'0 0.0
2014-Dec-08 01:32N 27°48' W 082°25'0 0.0
2014-Dec-08 00:32N 27°48' W 082°25'0 0.0
2014-Dec-07 23:32N 27°48' W 082°25'0 0.0
2014-Dec-07 19:29N 27°48' W 082°25'0 0.0
2014-Dec-07 18:29N 27°48' W 082°25'0 0.0
2014-Dec-07 17:23N 27°48' W 082°25'0 0.0
2014-Dec-07 15:11N 27°48' W 082°25'0 0.4
2014-Dec-07 14:33N 27°48' W 082°25'4 4.0
2014-Dec-07 13:33N 27°48' W 082°29'1111.1
2014-Dec-07 12:33N 27°39' W 082°37'1111.1
2014-Dec-07 11:33N 27°36' W 082°49'1111.0
2014-Dec-07 10:33N 27°35' W 083°01'  

Dump ship's entire track history